createdAt,value
2023-04-01T00:02:09.127Z,8.50
2023-04-01T00:04:36.833Z,8.23
2023-04-01T00:07:04.530Z,8.07
2023-04-01T00:09:32.601Z,8.40
2023-04-01T00:12:01.044Z,7.40
2023-04-01T00:14:30.638Z,7.43
2023-04-01T00:16:58.349Z,7.47
2023-04-01T00:19:26.129Z,7.97
2023-04-01T00:21:54.316Z,8.45
2023-04-01T00:24:21.955Z,9.15
2023-04-01T00:26:50.202Z,8.30
2023-04-01T00:29:17.908Z,8.13
2023-04-01T00:31:47.110Z,8.68
2023-04-01T00:34:14.944Z,8.18
2023-04-01T00:36:42.878Z,8.63
2023-04-01T00:39:10.970Z,8.30
2023-04-01T00:41:38.645Z,8.77
2023-04-01T00:44:21.239Z,9.07
2023-04-01T00:46:50.923Z,9.77
2023-04-01T00:49:21.289Z,8.65
2023-04-01T00:51:51.059Z,8.77
2023-04-01T00:54:21.174Z,8.73
2023-04-01T00:56:50.879Z,9.30
2023-04-01T00:59:23.461Z,9.13
2023-04-01T01:01:52.739Z,8.95
2023-04-01T01:04:24.227Z,8.65
2023-04-01T01:06:58.859Z,8.27
2023-04-01T01:09:34.352Z,9.05
2023-04-01T01:12:07.981Z,8.35
2023-04-01T01:14:43.686Z,8.23
2023-04-01T01:17:16.049Z,8.07
2023-04-01T01:20:02.385Z,7.85
2023-04-01T01:22:39.250Z,8.88
2023-04-01T01:25:18.677Z,8.25
2023-04-01T01:27:50.991Z,9.30
2023-04-01T01:30:29.558Z,8.52
2023-04-01T01:33:17.169Z,8.38
2023-04-01T01:35:48.549Z,9.30
2023-04-01T01:38:21.618Z,8.70
2023-04-01T01:41:01.816Z,8.18
2023-04-01T01:43:33.039Z,9.00
2023-04-01T01:46:05.547Z,7.97
2023-04-01T01:48:36.554Z,9.38
2023-04-01T01:51:08.103Z,8.50
2023-04-01T01:53:36.356Z,9.15
2023-04-01T01:56:04.537Z,8.70
2023-04-01T01:58:41.794Z,8.77
2023-04-01T02:01:14.424Z,8.38
2023-04-01T02:03:44.811Z,8.93
2023-04-01T02:06:17.172Z,8.65
2023-04-01T02:08:47.457Z,8.65
2023-04-01T02:11:18.870Z,9.63
2023-04-01T02:13:52.463Z,9.52
2023-04-01T02:16:23.046Z,8.77
2023-04-01T02:18:52.489Z,8.90
2023-04-01T02:21:22.635Z,9.95
2023-04-01T02:23:52.296Z,9.27
2023-04-01T02:26:20.729Z,8.98
2023-04-01T02:28:48.738Z,9.38
2023-04-01T02:31:16.930Z,10.77
2023-04-01T02:33:44.658Z,10.40
2023-04-01T02:36:13.529Z,11.23
2023-04-01T02:38:43.730Z,10.82
2023-04-01T02:41:11.591Z,11.30
2023-04-01T02:43:39.672Z,12.30
2023-04-01T02:46:08.602Z,12.27
2023-04-01T02:48:36.396Z,11.75
2023-04-01T02:51:04.721Z,13.07
2023-04-01T02:53:32.503Z,13.25
2023-04-01T02:56:01.557Z,13.82
2023-04-01T02:58:29.833Z,13.00
2023-04-01T03:00:57.607Z,13.20
2023-04-01T03:03:25.383Z,12.27
2023-04-01T03:05:56.328Z,11.93
2023-04-01T03:08:24.112Z,11.40
2023-04-01T03:10:52.135Z,9.07
2023-04-01T03:13:21.307Z,6.78
2023-04-01T03:15:49.345Z,6.13
2023-04-01T03:18:17.109Z,5.00
2023-04-01T03:20:45.232Z,5.03
2023-04-01T03:23:13.968Z,4.53
2023-04-01T03:25:41.801Z,4.68
2023-04-01T03:28:09.552Z,4.30
2023-04-01T03:30:38.592Z,4.63
2023-04-01T03:33:06.421Z,5.03
2023-04-01T03:35:36.798Z,5.57
2023-04-01T03:38:05.036Z,4.65
2023-04-01T03:40:34.008Z,5.00
2023-04-01T03:43:01.968Z,5.63
2023-04-01T03:45:30.671Z,5.60
2023-04-01T03:48:00.332Z,5.90
2023-04-01T03:50:29.553Z,6.20
2023-04-01T03:52:58.853Z,5.57
2023-04-01T03:55:27.016Z,6.40
2023-04-01T03:57:54.990Z,5.60
2023-04-01T04:00:22.710Z,6.07
2023-04-01T04:02:55.998Z,5.82
2023-04-01T04:05:29.963Z,5.80
2023-04-01T04:07:57.800Z,6.38
2023-04-01T04:10:25.987Z,5.78
2023-04-01T04:12:54.805Z,6.88
2023-04-01T04:15:24.242Z,6.50
2023-04-01T04:17:52.446Z,6.53
2023-04-01T04:20:20.558Z,6.13
2023-04-01T04:22:49.662Z,6.80
2023-04-01T04:25:17.613Z,6.20
2023-04-01T04:27:46.925Z,5.60
2023-04-01T04:30:16.365Z,3.80
2023-04-01T04:32:44.269Z,5.45
2023-04-01T04:35:13.546Z,5.55
2023-04-01T04:37:41.756Z,4.88
2023-04-01T04:40:11.479Z,4.97
2023-04-01T04:42:39.521Z,4.75
2023-04-01T04:45:13.566Z,4.28
2023-04-01T04:47:47.353Z,3.92
2023-04-01T04:50:15.841Z,3.70
2023-04-01T04:52:43.575Z,3.38
2023-04-01T04:55:12.734Z,3.67
2023-04-01T04:57:41.950Z,3.50
2023-04-01T05:00:12.395Z,2.97
2023-04-01T05:03:00.208Z,3.67
2023-04-01T05:05:27.956Z,3.28
2023-04-01T05:07:56.352Z,3.03
2023-04-01T05:10:25.622Z,3.45
2023-04-01T05:12:53.500Z,3.75
2023-04-01T05:15:24.207Z,3.47
2023-04-01T05:17:52.376Z,3.60
2023-04-01T05:20:20.355Z,3.38
2023-04-01T05:22:48.108Z,3.55
2023-04-01T05:25:16.052Z,3.15
2023-04-01T05:27:45.097Z,3.30
2023-04-01T05:30:14.197Z,3.38
2023-04-01T05:33:03.196Z,3.30
2023-04-01T05:35:31.380Z,3.25
2023-04-01T05:37:59.296Z,3.67
2023-04-01T05:40:27.909Z,3.13
2023-04-01T05:42:57.046Z,3.25
2023-04-01T05:45:25.063Z,3.55
2023-04-01T05:48:11.418Z,3.00
2023-04-01T05:50:42.554Z,3.08
2023-04-01T05:53:11.651Z,2.80
2023-04-01T05:55:42.329Z,3.13
2023-04-01T05:58:11.505Z,2.90
2023-04-01T06:00:41.578Z,3.13
2023-04-01T06:03:10.232Z,3.15
2023-04-01T06:05:42.999Z,3.10
2023-04-01T06:08:17.590Z,2.83
2023-04-01T06:11:14.380Z,2.47
2023-04-01T06:13:53.971Z,2.53
2023-04-01T06:16:27.068Z,2.83
2023-04-01T06:19:11.904Z,2.67
2023-04-01T06:22:05.172Z,4.32
2023-04-01T06:24:53.949Z,3.05
2023-04-01T06:27:28.106Z,2.83
2023-04-01T06:30:04.626Z,3.00
2023-04-01T06:32:50.613Z,3.05
2023-04-01T06:35:23.206Z,3.30
2023-04-01T06:38:17.867Z,2.45
2023-04-01T06:40:55.804Z,3.10
2023-04-01T06:43:28.252Z,2.90
2023-04-01T06:46:22.308Z,3.00
2023-04-01T06:49:31.363Z,2.67
2023-04-01T06:52:22.931Z,2.92
2023-04-01T06:55:23.441Z,3.10
2023-04-01T06:58:21.562Z,2.83
2023-04-01T07:00:52.016Z,2.55
2023-04-01T07:03:25.400Z,3.20
2023-04-01T07:05:53.869Z,2.90
2023-04-01T07:08:24.925Z,2.92
2023-04-01T07:10:55.767Z,3.42
2023-04-01T07:13:47.184Z,3.60
2023-04-01T07:16:20.992Z,3.10
2023-04-01T07:18:53.294Z,3.00
2023-04-01T07:21:29.207Z,3.38
2023-04-01T07:24:05.057Z,3.50
2023-04-01T07:26:39.945Z,3.10
2023-04-01T07:29:13.543Z,3.03
2023-04-01T07:32:09.923Z,2.60
2023-04-01T07:34:42.194Z,2.88
2023-04-01T07:37:13.808Z,2.80
2023-04-01T07:39:48.524Z,2.90
2023-04-01T07:42:26.358Z,2.65
2023-04-01T07:45:01.162Z,2.88
2023-04-01T07:47:45.644Z,2.70
2023-04-01T07:50:20.682Z,2.40
2023-04-01T07:52:55.720Z,2.30
2023-04-01T07:55:32.201Z,2.05
2023-04-01T07:58:05.447Z,2.42
2023-04-01T08:00:41.365Z,2.67
2023-04-01T08:03:30.946Z,1.73
2023-04-01T08:06:02.770Z,1.90
2023-04-01T08:08:41.353Z,2.75
2023-04-01T08:11:43.971Z,1.88
2023-04-01T08:14:35.719Z,1.48
2023-04-01T08:17:17.499Z,1.90
2023-04-01T08:19:57.487Z,1.58
2023-04-01T08:22:31.474Z,1.60
2023-04-01T08:25:05.079Z,2.20
2023-04-01T08:27:37.145Z,1.83
2023-04-01T08:30:10.399Z,1.83
2023-04-01T08:32:42.102Z,1.67
2023-04-01T08:35:29.816Z,1.65
2023-04-01T08:38:03.774Z,1.63
2023-04-01T08:40:55.757Z,1.63
2023-04-01T08:43:44.501Z,1.85
2023-04-01T08:46:27.195Z,1.63
2023-04-01T08:49:18.312Z,2.30
2023-04-01T08:52:00.415Z,2.35
2023-04-01T08:54:42.378Z,1.67
2023-04-01T08:57:17.004Z,1.40
2023-04-01T09:00:16.100Z,1.80
2023-04-01T09:03:21.400Z,1.90
2023-04-01T09:06:21.260Z,2.00
2023-04-01T09:09:02.240Z,1.80
2023-04-01T09:11:36.896Z,1.60
2023-04-01T09:14:50.518Z,2.60
2023-04-01T09:17:37.819Z,2.65
2023-04-01T09:20:41.108Z,2.78
2023-04-01T09:23:30.592Z,2.35
2023-04-01T09:26:12.932Z,2.80
2023-04-01T09:28:46.941Z,2.78
2023-04-01T09:31:26.615Z,2.42
2023-04-01T09:34:46.256Z,3.20
2023-04-01T09:37:22.719Z,2.83
2023-04-01T09:40:12.003Z,3.20
2023-04-01T09:42:48.094Z,3.38
2023-04-01T09:45:45.943Z,2.50
2023-04-01T09:48:23.464Z,3.03
2023-04-01T09:50:57.192Z,2.00
2023-04-01T09:53:34.596Z,1.73
2023-04-01T09:56:33.777Z,1.80
2023-04-01T10:00:32.197Z,1.65
2023-04-01T10:04:30.733Z,2.53
2023-04-01T10:08:30.923Z,1.67
2023-04-01T10:12:43.121Z,1.67
2023-04-01T10:16:28.333Z,1.60
2023-04-01T10:20:04.199Z,2.00
2023-04-01T10:23:40.172Z,2.10
2023-04-01T10:27:19.331Z,2.30
2023-04-01T10:31:42.626Z,2.35
2023-04-01T10:35:54.228Z,2.47
2023-04-01T10:39:44.035Z,2.38
2023-04-01T10:44:08.413Z,2.85
2023-04-01T10:47:53.324Z,2.70
2023-04-01T10:51:40.940Z,3.10
2023-04-01T10:55:21.528Z,3.30
2023-04-01T10:59:44.260Z,3.80
2023-04-01T11:03:49.319Z,4.47
2023-04-01T11:08:05.254Z,4.57
2023-04-01T11:11:57.512Z,4.55
2023-04-01T11:15:59.435Z,5.13
2023-04-01T11:19:44.472Z,6.20
2023-04-01T11:23:31.741Z,6.30
2023-04-01T11:27:13.059Z,5.88
2023-04-01T11:31:03.361Z,7.30
2023-04-01T11:34:44.421Z,7.25
2023-04-01T11:38:12.761Z,6.15
2023-04-01T11:41:46.133Z,7.30
2023-04-01T11:45:34.347Z,7.13
2023-04-01T11:49:18.583Z,6.40
2023-04-01T11:53:04.079Z,6.82
2023-04-01T11:56:36.142Z,6.32
2023-04-01T12:00:21.063Z,7.18
2023-04-01T12:04:03.147Z,6.60
2023-04-01T12:07:29.758Z,7.53
2023-04-01T12:10:55.092Z,8.45
2023-04-01T12:14:24.686Z,7.25
2023-04-01T12:17:51.295Z,7.93
2023-04-01T12:21:27.170Z,7.47
2023-04-01T12:24:58.741Z,8.38
2023-04-01T12:28:46.348Z,6.18
2023-04-01T12:32:17.531Z,7.90
2023-04-01T12:35:46.601Z,6.68
2023-04-01T12:39:20.074Z,7.93
2023-04-01T12:42:46.603Z,7.38
2023-04-01T12:46:19.102Z,7.32
2023-04-01T12:49:55.585Z,6.82
2023-04-01T12:53:25.400Z,6.47
2023-04-01T12:56:48.477Z,6.40
2023-04-01T13:00:33.452Z,6.13
2023-04-01T13:04:15.338Z,6.72
2023-04-01T13:07:53.152Z,5.78
2023-04-01T13:11:23.182Z,6.30
2023-04-01T13:15:13.680Z,6.25
2023-04-01T13:18:40.364Z,5.65
2023-04-01T13:22:04.578Z,6.22
2023-04-01T13:25:36.458Z,6.55
2023-04-01T13:29:01.703Z,6.47
2023-04-01T13:32:40.698Z,6.65
2023-04-01T13:36:18.747Z,6.45
2023-04-01T13:39:51.038Z,6.15
2023-04-01T13:43:17.237Z,5.40
2023-04-01T13:46:56.008Z,7.53
2023-04-01T13:50:54.315Z,6.65
2023-04-01T13:54:28.027Z,6.32
2023-04-01T13:57:58.654Z,6.35
2023-04-01T14:01:31.740Z,6.45
2023-04-01T14:05:11.755Z,7.53
2023-04-01T14:08:54.198Z,6.15
2023-04-01T14:12:23.261Z,6.07
2023-04-01T14:15:53.521Z,4.85
2023-04-01T14:19:40.245Z,7.03
2023-04-01T14:23:18.310Z,5.80
2023-04-01T14:26:58.807Z,6.50
2023-04-01T14:30:35.986Z,5.78
2023-04-01T14:34:03.051Z,6.15
2023-04-01T14:37:54.549Z,5.75
2023-04-01T14:41:27.342Z,6.10
2023-04-01T14:44:58.534Z,5.68
2023-04-01T14:48:37.007Z,7.68
2023-04-01T14:52:06.107Z,5.88
2023-04-01T14:55:35.181Z,4.93
2023-04-01T14:59:06.659Z,6.03
2023-04-01T15:02:39.294Z,5.90
2023-04-01T15:06:18.921Z,6.32
2023-04-01T15:09:43.108Z,6.40
2023-04-01T15:13:14.317Z,7.15
2023-04-01T15:16:44.015Z,6.70
2023-04-01T15:20:26.701Z,7.50
2023-04-01T15:24:08.098Z,7.07
2023-04-01T15:27:48.931Z,6.45
2023-04-01T15:31:21.232Z,9.95
2023-04-01T15:34:52.186Z,6.45
2023-04-01T15:38:20.653Z,6.70
2023-04-01T15:41:45.047Z,6.40
2023-04-01T15:45:27.147Z,7.00
2023-04-01T15:48:54.232Z,7.13
2023-04-01T15:52:18.062Z,5.72
2023-04-01T15:55:55.165Z,7.80
2023-04-01T15:59:30.756Z,6.57
2023-04-01T16:02:56.844Z,5.70
2023-04-01T16:06:49.068Z,6.97
2023-04-01T16:10:25.210Z,6.30
2023-04-01T16:13:58.193Z,5.88
2023-04-01T16:17:29.261Z,6.03
2023-04-01T16:20:52.106Z,5.72
2023-04-01T16:24:17.341Z,7.60
2023-04-01T16:27:43.200Z,6.63
2023-04-01T16:31:18.252Z,6.60
2023-04-01T16:34:43.227Z,4.53
2023-04-01T16:38:07.838Z,4.78
2023-04-01T16:41:33.447Z,6.30
2023-04-01T16:45:08.620Z,5.03
2023-04-01T16:48:32.898Z,4.38
2023-04-01T16:51:56.883Z,5.45
2023-04-01T16:55:25.268Z,4.57
2023-04-01T16:58:51.511Z,4.10
2023-04-01T17:02:18.059Z,4.85
2023-04-01T17:05:50.270Z,4.13
2023-04-01T17:09:21.968Z,4.25
2023-04-01T17:12:46.075Z,4.70
2023-04-01T17:16:25.234Z,4.07
2023-04-01T17:19:51.918Z,3.63
2023-04-01T17:23:22.682Z,4.32
2023-04-01T17:26:58.746Z,3.80
2023-04-01T17:30:29.889Z,4.32
2023-04-01T17:34:28.975Z,4.95
2023-04-01T17:38:02.780Z,3.90
2023-04-01T17:41:35.145Z,3.90
2023-04-01T17:45:01.111Z,3.28
2023-04-01T17:48:35.573Z,3.55
2023-04-01T17:52:06.250Z,4.20
2023-04-01T17:55:42.352Z,3.53
2023-04-01T17:59:09.806Z,3.20
2023-04-01T18:02:36.839Z,3.53
2023-04-01T18:06:10.641Z,4.30
2023-04-01T18:09:41.202Z,3.63
2023-04-01T18:13:22.407Z,3.20
2023-04-01T18:16:54.471Z,3.33
2023-04-01T18:20:33.775Z,3.20
2023-04-01T18:24:02.289Z,4.30
2023-04-01T18:27:30.336Z,4.00
2023-04-01T18:30:56.650Z,3.13
2023-04-01T18:34:21.716Z,3.88
2023-04-01T18:37:46.877Z,3.47
2023-04-01T18:41:14.826Z,4.10
2023-04-01T18:44:41.199Z,4.20
2023-04-01T18:48:10.995Z,3.83
2023-04-01T18:51:36.868Z,4.10
2023-04-01T18:55:18.841Z,4.75
2023-04-01T18:58:47.935Z,8.55
2023-04-01T19:02:20.726Z,3.77
2023-04-01T19:05:47.315Z,4.13
2023-04-01T19:09:26.801Z,4.60
2023-04-01T19:13:10.967Z,5.47
2023-04-01T19:16:44.643Z,5.07
2023-04-01T19:20:17.202Z,4.07
2023-04-01T19:23:51.422Z,4.30
2023-04-01T19:27:17.365Z,4.00
2023-04-01T19:30:49.584Z,3.90
2023-04-01T19:34:21.557Z,4.45
2023-04-01T19:37:46.316Z,4.00
2023-04-01T19:41:18.895Z,4.07
2023-04-01T19:44:48.445Z,4.10
2023-04-01T19:48:18.651Z,3.70
2023-04-01T19:51:42.539Z,4.60
2023-04-01T19:55:24.353Z,4.60
2023-04-01T19:58:48.057Z,4.50
2023-04-01T20:02:29.962Z,4.65
2023-04-01T20:05:58.585Z,4.60
2023-04-01T20:09:32.195Z,3.80
2023-04-01T20:12:56.415Z,3.87
2023-04-01T20:16:22.834Z,4.50
2023-04-01T20:19:46.493Z,4.50
2023-04-01T20:23:32.682Z,3.77
2023-04-01T20:27:01.287Z,4.17
2023-04-01T20:30:48.536Z,4.25
2023-04-01T20:34:25.281Z,3.47
2023-04-01T20:37:55.717Z,4.17
2023-04-01T20:41:26.365Z,4.23
2023-04-01T20:44:59.218Z,3.92
2023-04-01T20:49:01.162Z,3.80
2023-04-01T20:52:27.280Z,3.90
2023-04-01T20:56:12.634Z,4.13
2023-04-01T20:59:50.714Z,3.63
2023-04-01T21:03:21.983Z,3.10
2023-04-01T21:07:03.247Z,3.50
2023-04-01T21:10:37.369Z,3.10
2023-04-01T21:14:08.505Z,3.07
2023-04-01T21:17:36.423Z,3.50
2023-04-01T21:21:16.680Z,3.90
2023-04-01T21:24:48.451Z,3.07
2023-04-01T21:28:22.842Z,3.13
2023-04-01T21:32:02.196Z,3.30
2023-04-01T21:35:28.687Z,3.23
2023-04-01T21:39:04.490Z,3.20
2023-04-01T21:42:33.507Z,3.57
2023-04-01T21:46:26.169Z,3.40
2023-04-01T21:50:05.490Z,2.83
2023-04-01T21:54:01.765Z,3.80
2023-04-01T21:57:47.049Z,3.43
2023-04-01T22:01:13.750Z,3.67
2023-04-01T22:04:46.814Z,3.17
2023-04-01T22:08:17.660Z,3.37
2023-04-01T22:11:50.772Z,3.97
2023-04-01T22:15:19.112Z,2.90
2023-04-01T22:18:46.654Z,3.43
2023-04-01T22:22:12.970Z,3.10
2023-04-01T22:25:40.569Z,3.03
2023-04-01T22:29:04.571Z,3.30
2023-04-01T22:32:32.717Z,3.40
2023-04-01T22:36:00.913Z,3.20
2023-04-01T22:39:33.718Z,3.50
2023-04-01T22:42:59.340Z,3.50
2023-04-01T22:46:38.170Z,3.13
2023-04-01T22:50:04.540Z,3.50
2023-04-01T22:53:30.859Z,3.60
2023-04-01T22:56:55.363Z,3.23
2023-04-01T23:00:19.975Z,3.40
2023-04-01T23:03:46.229Z,3.10
2023-04-01T23:07:17.451Z,3.30
2023-04-01T23:10:41.580Z,3.47
2023-04-01T23:14:09.177Z,3.20
2023-04-01T23:17:34.052Z,3.20
2023-04-01T23:21:04.187Z,3.33
2023-04-01T23:24:28.205Z,3.40
2023-04-01T23:27:52.714Z,3.30
2023-04-01T23:31:35.225Z,3.27
2023-04-01T23:34:57.289Z,3.20
2023-04-01T23:38:19.455Z,3.37
2023-04-01T23:41:42.390Z,3.10
2023-04-01T23:45:06.370Z,2.57
2023-04-01T23:48:29.042Z,3.17
2023-04-01T23:51:52.198Z,2.63
2023-04-01T23:55:19.594Z,3.00
2023-04-01T23:58:57.787Z,2.70
